sensor_id;sensor_type;location;lat;lon;timestamp;pressure;altitude;pressure_sealevel;temperature;humidity
28008;BME280;15333;50.010;20.020;2023-01-31T00:02:16;98006.53;;;0.90;100.00
28008;BME280;15333;50.010;20.020;2023-01-31T00:05:16;98012.09;;;1.01;100.00
28008;BME280;15333;50.010;20.020;2023-01-31T00:08:19;98021.94;;;0.98;100.00
28008;BME280;15333;50.010;20.020;2023-01-31T00:11:23;98012.28;;;0.98;100.00
28008;BME280;15333;50.010;20.020;2023-01-31T00:14:25;98006.34;;;0.93;100.00
28008;BME280;15333;50.010;20.020;2023-01-31T00:17:25;98011.72;;;0.92;100.00
28008;BME280;15333;50.010;20.020;2023-01-31T00:20:27;98027.72;;;0.87;100.00
28008;BME280;15333;50.010;20.020;2023-01-31T00:23:27;98020.19;;;0.79;100.00
28008;BME280;15333;50.010;20.020;2023-01-31T00:26:31;98028.81;;;0.83;100.00
28008;BME280;15333;50.010;20.020;2023-01-31T00:29:32;98030.84;;;0.78;100.00
28008;BME280;15333;50.010;20.020;2023-01-31T00:32:33;98025.09;;;0.70;100.00
28008;BME280;15333;50.010;20.020;2023-01-31T00:35:37;98019.16;;;0.65;100.00
28008;BME280;15333;50.010;20.020;2023-01-31T00:38:38;98043.66;;;0.67;100.00
28008;BME280;15333;50.010;20.020;2023-01-31T00:41:39;98047.06;;;0.69;100.00
28008;BME280;15333;50.010;20.020;2023-01-31T00:44:40;98043.66;;;0.67;100.00
28008;BME280;15333;50.010;20.020;2023-01-31T00:47:41;98032.97;;;0.70;100.00
28008;BME280;15333;50.010;20.020;2023-01-31T00:50:42;98038.38;;;0.67;100.00
28008;BME280;15333;50.010;20.020;2023-01-31T00:53:45;98042.09;;;0.63;100.00
28008;BME280;15333;50.010;20.020;2023-01-31T00:56:47;98045.34;;;0.68;100.00
28008;BME280;15333;50.010;20.020;2023-01-31T00:59:48;98044.44;;;0.69;100.00
28008;BME280;15333;50.010;20.020;2023-01-31T01:02:49;98036.25;;;0.75;100.00
28008;BME280;15333;50.010;20.020;2023-01-31T01:05:50;98050.25;;;0.75;100.00
28008;BME280;15333;50.010;20.020;2023-01-31T01:08:51;98045.63;;;0.81;100.00
28008;BME280;15333;50.010;20.020;2023-01-31T01:11:52;98062.28;;;0.81;100.00
28008;BME280;15333;50.010;20.020;2023-01-31T01:14:53;98072.38;;;0.71;100.00
28008;BME280;15333;50.010;20.020;2023-01-31T01:17:55;98068.00;;;0.53;100.00
28008;BME280;15333;50.010;20.020;2023-01-31T01:20:56;98073.84;;;0.41;100.00
28008;BME280;15333;50.010;20.020;2023-01-31T01:24:00;98072.81;;;0.44;100.00
28008;BME280;15333;50.010;20.020;2023-01-31T01:27:01;98069.28;;;0.45;100.00
28008;BME280;15333;50.010;20.020;2023-01-31T01:30:05;98065.72;;;0.46;100.00
28008;BME280;15333;50.010;20.020;2023-01-31T01:33:07;98074.19;;;0.52;100.00
28008;BME280;15333;50.010;20.020;2023-01-31T01:36:09;98072.56;;;0.50;100.00
28008;BME280;15333;50.010;20.020;2023-01-31T01:39:16;98072.41;;;0.53;100.00
28008;BME280;15333;50.010;20.020;2023-01-31T01:42:22;98084.66;;;0.54;100.00
28008;BME280;15333;50.010;20.020;2023-01-31T01:45:24;98075.66;;;0.58;100.00
28008;BME280;15333;50.010;20.020;2023-01-31T01:48:26;98088.94;;;0.56;100.00
28008;BME280;15333;50.010;20.020;2023-01-31T01:51:28;98088.56;;;0.64;100.00
28008;BME280;15333;50.010;20.020;2023-01-31T01:54:36;98089.34;;;0.66;100.00
28008;BME280;15333;50.010;20.020;2023-01-31T01:57:40;98090.13;;;0.68;100.00
28008;BME280;15333;50.010;20.020;2023-01-31T02:00:42;98090.13;;;0.68;100.00
28008;BME280;15333;50.010;20.020;2023-01-31T02:03:47;98094.31;;;0.72;100.00
28008;BME280;15333;50.010;20.020;2023-01-31T02:06:48;98097.72;;;0.74;100.00
28008;BME280;15333;50.010;20.020;2023-01-31T02:12:59;98108.44;;;0.71;100.00
28008;BME280;15333;50.010;20.020;2023-01-31T02:16:02;98115.38;;;0.72;100.00
28008;BME280;15333;50.010;20.020;2023-01-31T02:19:34;98106.53;;;0.73;100.00
28008;BME280;15333;50.010;20.020;2023-01-31T02:23:04;98111.06;;;0.71;100.00
28008;BME280;15333;50.010;20.020;2023-01-31T02:37:25;98133.59;;;0.95;100.00
28008;BME280;15333;50.010;20.020;2023-01-31T02:43:57;98144.63;;;1.03;100.00
28008;BME280;15333;50.010;20.020;2023-01-31T02:54:06;98166.31;;;1.08;100.00
28008;BME280;15333;50.010;20.020;2023-01-31T02:57:09;98163.69;;;1.08;100.00
28008;BME280;15333;50.010;20.020;2023-01-31T03:00:11;98166.03;;;1.14;100.00
28008;BME280;15333;50.010;20.020;2023-01-31T03:03:27;98180.16;;;1.13;100.00
28008;BME280;15333;50.010;20.020;2023-01-31T03:19:47;98193.03;;;1.20;100.00
28008;BME280;15333;50.010;20.020;2023-01-31T03:23:00;98189.53;;;1.19;100.00
28008;BME280;15333;50.010;20.020;2023-01-31T03:26:05;98195.66;;;1.20;100.00
28008;BME280;15333;50.010;20.020;2023-01-31T03:29:07;98202.66;;;1.21;100.00
28008;BME280;15333;50.010;20.020;2023-01-31T03:32:40;98214.44;;;1.31;100.00
28008;BME280;15333;50.010;20.020;2023-01-31T03:35:46;98207.31;;;1.33;100.00
28008;BME280;15333;50.010;20.020;2023-01-31T03:39:18;98218.78;;;1.32;100.00
28008;BME280;15333;50.010;20.020;2023-01-31T03:45:49;98220.81;;;1.27;100.00
28008;BME280;15333;50.010;20.020;2023-01-31T03:48:55;98227.00;;;1.26;100.00
28008;BME280;15333;50.010;20.020;2023-01-31T03:52:03;98227.78;;;1.28;100.00
28008;BME280;15333;50.010;20.020;2023-01-31T03:55:15;98233.13;;;1.26;100.00
28008;BME280;15333;50.010;20.020;2023-01-31T03:58:21;98230.56;;;1.25;100.00
28008;BME280;15333;50.010;20.020;2023-01-31T04:01:27;98244.53;;;1.27;100.00
28008;BME280;15333;50.010;20.020;2023-01-31T04:04:30;98234.97;;;1.24;100.00
28008;BME280;15333;50.010;20.020;2023-01-31T04:07:33;98242.81;;;1.26;100.00
28008;BME280;15333;50.010;20.020;2023-01-31T04:10:35;98253.34;;;1.26;100.00
28008;BME280;15333;50.010;20.020;2023-01-31T04:13:37;98254.03;;;1.29;100.00
28008;BME280;15333;50.010;20.020;2023-01-31T04:16:37;98260.34;;;1.27;100.00
28008;BME280;15333;50.010;20.020;2023-01-31T04:19:38;98262.88;;;1.28;100.00
28008;BME280;15333;50.010;20.020;2023-01-31T04:22:39;98259.47;;;1.26;100.00
28008;BME280;15333;50.010;20.020;2023-01-31T04:25:40;98262.19;;;1.25;100.00
28008;BME280;15333;50.010;20.020;2023-01-31T04:28:41;98270.88;;;1.27;100.00
28008;BME280;15333;50.010;20.020;2023-01-31T04:31:42;98272.84;;;1.22;100.00
28008;BME280;15333;50.010;20.020;2023-01-31T04:34:43;98277.38;;;1.20;100.00
28008;BME280;15333;50.010;20.020;2023-01-31T04:37:44;98279.84;;;1.23;100.00
28008;BME280;15333;50.010;20.020;2023-01-31T04:40:45;98284.75;;;1.11;100.00
28008;BME280;15333;50.010;20.020;2023-01-31T04:43:46;98293.06;;;1.02;100.00
28008;BME280;15333;50.010;20.020;2023-01-31T04:46:47;98303.78;;;0.99;100.00
28008;BME280;15333;50.010;20.020;2023-01-31T04:49:48;98301.25;;;0.96;100.00
28008;BME280;15333;50.010;20.020;2023-01-31T04:52:50;98302.41;;;0.91;100.00
28008;BME280;15333;50.010;20.020;2023-01-31T04:55:54;98321.97;;;0.85;100.00
28008;BME280;15333;50.010;20.020;2023-01-31T04:58:55;98321.81;;;0.88;100.00
28008;BME280;15333;50.010;20.020;2023-01-31T05:01:56;98333.31;;;0.86;100.00
28008;BME280;15333;50.010;20.020;2023-01-31T05:04:57;98324.50;;;0.87;100.00
28008;BME280;15333;50.010;20.020;2023-01-31T05:07:58;98327.06;;;0.88;100.00
28008;BME280;15333;50.010;20.020;2023-01-31T05:11:03;98340.25;;;0.88;100.00
28008;BME280;15333;50.010;20.020;2023-01-31T05:14:07;98344.59;;;0.89;100.00
28008;BME280;15333;50.010;20.020;2023-01-31T05:17:08;98347.50;;;0.83;100.00
28008;BME280;15333;50.010;20.020;2023-01-31T05:20:10;98362.50;;;0.81;100.00
28008;BME280;15333;50.010;20.020;2023-01-31T05:23:11;98355.81;;;0.74;100.00
28008;BME280;15333;50.010;20.020;2023-01-31T05:26:13;98364.75;;;0.70;100.00
28008;BME280;15333;50.010;20.020;2023-01-31T05:29:14;98375.69;;;0.61;100.00
28008;BME280;15333;50.010;20.020;2023-01-31T05:32:15;98377.91;;;0.50;100.00
28008;BME280;15333;50.010;20.020;2023-01-31T05:35:18;98383.19;;;0.50;100.00
28008;BME280;15333;50.010;20.020;2023-01-31T05:38:19;98389.47;;;0.46;100.00
28008;BME280;15333;50.010;20.020;2023-01-31T05:41:20;98386.59;;;0.52;100.00
28008;BME280;15333;50.010;20.020;2023-01-31T05:44:21;98397.13;;;0.52;100.00
28008;BME280;15333;50.010;20.020;2023-01-31T05:47:22;98400.66;;;0.51;100.00
28008;BME280;15333;50.010;20.020;2023-01-31T05:50:24;98410.13;;;0.56;100.00
28008;BME280;15333;50.010;20.020;2023-01-31T05:53:25;98415.13;;;0.62;100.00
28008;BME280;15333;50.010;20.020;2023-01-31T05:56:27;98420.84;;;0.72;100.00
28008;BME280;15333;50.010;20.020;2023-01-31T05:59:27;98429.69;;;0.71;100.00
28008;BME280;15333;50.010;20.020;2023-01-31T06:02:31;98433.84;;;0.76;100.00
28008;BME280;15333;50.010;20.020;2023-01-31T06:05:32;98425.72;;;0.81;100.00
28008;BME280;15333;50.010;20.020;2023-01-31T06:08:34;98429.47;;;0.75;100.00
28008;BME280;15333;50.010;20.020;2023-01-31T06:11:34;98438.03;;;0.81;100.00
28008;BME280;15333;50.010;20.020;2023-01-31T06:14:35;98445.66;;;0.87;100.00
28008;BME280;15333;50.010;20.020;2023-01-31T06:17:36;98448.41;;;0.85;100.00
28008;BME280;15333;50.010;20.020;2023-01-31T06:20:37;98459.03;;;0.82;100.00
28008;BME280;15333;50.010;20.020;2023-01-31T06:23:38;98457.97;;;0.86;100.00
28008;BME280;15333;50.010;20.020;2023-01-31T06:26:40;98468.19;;;0.94;100.00
28008;BME280;15333;50.010;20.020;2023-01-31T06:29:40;98468.34;;;0.91;100.00
28008;BME280;15333;50.010;20.020;2023-01-31T06:32:42;98481.47;;;0.92;100.00
28008;BME280;15333;50.010;20.020;2023-01-31T06:35:42;98484.75;;;0.97;100.00
28008;BME280;15333;50.010;20.020;2023-01-31T06:38:43;98492.81;;;0.93;100.00
28008;BME280;15333;50.010;20.020;2023-01-31T06:41:47;98493.03;;;0.88;100.00
28008;BME280;15333;50.010;20.020;2023-01-31T06:44:48;98497.06;;;0.97;100.00
28008;BME280;15333;50.010;20.020;2023-01-31T06:47:49;98505.03;;;0.95;100.00
28008;BME280;15333;50.010;20.020;2023-01-31T06:50:50;98505.94;;;0.94;100.00
28008;BME280;15333;50.010;20.020;2023-01-31T06:53:51;98512.13;;;0.93;100.00
28008;BME280;15333;50.010;20.020;2023-01-31T06:56:52;98527.03;;;0.94;100.00
28008;BME280;15333;50.010;20.020;2023-01-31T06:59:53;98532.19;;;0.97;100.00
28008;BME280;15333;50.010;20.020;2023-01-31T07:02:54;98542.72;;;0.97;100.00
28008;BME280;15333;50.010;20.020;2023-01-31T07:05:56;98542.56;;;1.00;100.00
28008;BME280;15333;50.010;20.020;2023-01-31T07:08:57;98550.47;;;1.00;100.00
28008;BME280;15333;50.010;20.020;2023-01-31T07:11:58;98557.34;;;1.04;100.00
28008;BME280;15333;50.010;20.020;2023-01-31T07:14:59;98562.63;;;1.04;100.00
28008;BME280;15333;50.010;20.020;2023-01-31T07:18:00;98577.38;;;1.08;100.00
28008;BME280;15333;50.010;20.020;2023-01-31T07:21:01;98577.44;;;1.07;100.00
28008;BME280;15333;50.010;20.020;2023-01-31T07:24:02;98582.78;;;1.05;100.00
28008;BME280;15333;50.010;20.020;2023-01-31T07:27:03;98585.97;;;1.13;100.00
28008;BME280;15333;50.010;20.020;2023-01-31T07:30:05;98593.19;;;1.08;100.00
28008;BME280;15333;50.010;20.020;2023-01-31T07:33:06;98592.31;;;1.08;100.00
28008;BME280;15333;50.010;20.020;2023-01-31T07:36:11;98593.19;;;1.08;100.00
28008;BME280;15333;50.010;20.020;2023-01-31T07:39:13;98596.50;;;1.13;100.00
28008;BME280;15333;50.010;20.020;2023-01-31T07:42:14;98604.31;;;1.15;100.00
28008;BME280;15333;50.010;20.020;2023-01-31T07:45:17;98596.50;;;1.13;100.00
28008;BME280;15333;50.010;20.020;2023-01-31T07:48:18;98591.09;;;1.16;100.00
28008;BME280;15333;50.010;20.020;2023-01-31T07:51:23;98596.63;;;1.10;100.00
28008;BME280;15333;50.010;20.020;2023-01-31T07:54:24;98608.63;;;1.17;100.00
28008;BME280;15333;50.010;20.020;2023-01-31T07:57:25;98597.22;;;1.17;100.00
28008;BME280;15333;50.010;20.020;2023-01-31T08:00:25;98593.94;;;1.12;100.00
28008;BME280;15333;50.010;20.020;2023-01-31T08:03:45;98606.91;;;1.16;100.00
28008;BME280;15333;50.010;20.020;2023-01-31T08:06:46;98601.53;;;1.20;100.00
28008;BME280;15333;50.010;20.020;2023-01-31T08:09:48;98608.63;;;1.17;100.00
28008;BME280;15333;50.010;20.020;2023-01-31T08:12:49;98608.31;;;1.25;100.00
28008;BME280;15333;50.010;20.020;2023-01-31T08:15:50;98608.13;;;1.30;100.00
28008;BME280;15333;50.010;20.020;2023-01-31T08:18:52;98614.31;;;1.29;100.00
28008;BME280;15333;50.010;20.020;2023-01-31T08:21:53;98622.31;;;1.27;100.00
28008;BME280;15333;50.010;20.020;2023-01-31T08:24:54;98623.16;;;1.28;100.00
28008;BME280;15333;50.010;20.020;2023-01-31T08:27:59;98627.84;;;1.41;100.00
28008;BME280;15333;50.010;20.020;2023-01-31T08:31:00;98640.19;;;1.41;100.00
28008;BME280;15333;50.010;20.020;2023-01-31T08:34:01;98643.38;;;1.49;100.00
28008;BME280;15333;50.010;20.020;2023-01-31T08:37:02;98639.13;;;1.45;100.00
28008;BME280;15333;50.010;20.020;2023-01-31T08:40:04;98644.28;;;1.48;100.00
28008;BME280;15333;50.010;20.020;2023-01-31T08:43:05;98639.13;;;1.45;100.00
28008;BME280;15333;50.010;20.020;2023-01-31T08:46:06;98644.94;;;1.53;100.00
28008;BME280;15333;50.010;20.020;2023-01-31T08:49:07;98655.44;;;1.54;100.00
28008;BME280;15333;50.010;20.020;2023-01-31T08:52:08;98655.56;;;1.72;100.00
28008;BME280;15333;50.010;20.020;2023-01-31T08:55:09;98659.22;;;1.69;98.62
28008;BME280;15333;50.010;20.020;2023-01-31T08:58:13;98658.94;;;1.75;98.69
28008;BME280;15333;50.010;20.020;2023-01-31T09:01:16;98670.97;;;1.82;98.06
28008;BME280;15333;50.010;20.020;2023-01-31T09:04:17;98666.28;;;1.89;98.17
28008;BME280;15333;50.010;20.020;2023-01-31T09:07:18;98678.28;;;1.76;98.70
28008;BME280;15333;50.010;20.020;2023-01-31T09:10:21;98679.13;;;1.76;99.82
28008;BME280;15333;50.010;20.020;2023-01-31T09:13:23;98675.56;;;1.77;99.95
28008;BME280;15333;50.010;20.020;2023-01-31T09:16:24;98678.22;;;1.77;99.32
28008;BME280;15333;50.010;20.020;2023-01-31T09:19:25;98684.22;;;1.81;99.81
28008;BME280;15333;50.010;20.020;2023-01-31T09:22:29;98686.00;;;2.01;98.24
28008;BME280;15333;50.010;20.020;2023-01-31T09:25:30;98689.16;;;2.09;97.06
28008;BME280;15333;50.010;20.020;2023-01-31T09:28:31;98673.72;;;2.00;96.00
28008;BME280;15333;50.010;20.020;2023-01-31T09:31:32;98676.63;;;2.14;95.05
28008;BME280;15333;50.010;20.020;2023-01-31T09:34:33;98673.81;;;1.98;95.00
28008;BME280;15333;50.010;20.020;2023-01-31T09:37:34;98671.69;;;2.26;93.44
28008;BME280;15333;50.010;20.020;2023-01-31T09:40:38;98679.38;;;2.31;93.46
28008;BME280;15333;50.010;20.020;2023-01-31T09:43:44;98673.47;;;2.06;92.63
28008;BME280;15333;50.010;20.020;2023-01-31T09:46:54;98686.41;;;2.12;92.72
28008;BME280;15333;50.010;20.020;2023-01-31T09:50:01;98672.47;;;2.08;92.05
28008;BME280;15333;50.010;20.020;2023-01-31T09:53:03;98670.16;;;2.21;92.58
28008;BME280;15333;50.010;20.020;2023-01-31T09:56:14;98678.16;;;2.19;92.00
28008;BME280;15333;50.010;20.020;2023-01-31T09:59:23;98688.50;;;2.24;91.74
28008;BME280;15333;50.010;20.020;2023-01-31T10:05:38;98683.50;;;1.98;93.00
28008;BME280;15333;50.010;20.020;2023-01-31T10:08:45;98673.59;;;2.23;94.04
28008;BME280;15333;50.010;20.020;2023-01-31T10:11:52;98671.22;;;2.17;93.35
28008;BME280;15333;50.010;20.020;2023-01-31T10:15:01;98687.88;;;1.99;94.64
28008;BME280;15333;50.010;20.020;2023-01-31T10:18:27;98677.44;;;1.95;96.13
28008;BME280;15333;50.010;20.020;2023-01-31T10:21:37;98681.50;;;2.03;96.42
28008;BME280;15333;50.010;20.020;2023-01-31T10:31:55;98693.78;;;2.24;95.34
28008;BME280;15333;50.010;20.020;2023-01-31T10:35:14;98689.03;;;2.12;95.82
28008;BME280;15333;50.010;20.020;2023-01-31T10:38:29;98681.91;;;2.14;96.90
28008;BME280;15333;50.010;20.020;2023-01-31T10:41:38;98692.34;;;2.17;96.12
28008;BME280;15333;50.010;20.020;2023-01-31T10:47:53;98699.78;;;2.27;93.45
28008;BME280;15333;50.010;20.020;2023-01-31T10:57:17;98695.84;;;2.17;92.16
28008;BME280;15333;50.010;20.020;2023-01-31T11:00:21;98692.47;;;2.34;92.11
28008;BME280;15333;50.010;20.020;2023-01-31T11:03:23;98696.94;;;2.32;91.59
28008;BME280;15333;50.010;20.020;2023-01-31T11:06:24;98696.38;;;2.25;90.33
28008;BME280;15333;50.010;20.020;2023-01-31T11:09:32;98681.91;;;2.34;90.06
28008;BME280;15333;50.010;20.020;2023-01-31T11:12:42;98682.28;;;2.45;89.03
28008;BME280;15333;50.010;20.020;2023-01-31T11:15:52;98680.66;;;2.22;86.70
28008;BME280;15333;50.010;20.020;2023-01-31T11:18:55;98681.88;;;2.54;86.75
28008;BME280;15333;50.010;20.020;2023-01-31T11:21:58;98682.97;;;2.49;85.93
28008;BME280;15333;50.010;20.020;2023-01-31T11:25:00;98669.41;;;2.38;85.02
28008;BME280;15333;50.010;20.020;2023-01-31T11:28:17;98682.28;;;2.45;83.45
28008;BME280;15333;50.010;20.020;2023-01-31T11:31:27;98679.41;;;2.50;82.79
28008;BME280;15333;50.010;20.020;2023-01-31T11:34:29;98675.28;;;2.44;82.65
28008;BME280;15333;50.010;20.020;2023-01-31T11:37:32;98686.47;;;2.49;82.38
28008;BME280;15333;50.010;20.020;2023-01-31T11:40:36;98686.56;;;2.48;81.63
28008;BME280;15333;50.010;20.020;2023-01-31T11:43:37;98679.66;;;2.25;82.42
28008;BME280;15333;50.010;20.020;2023-01-31T11:46:56;98684.06;;;2.45;83.54
28008;BME280;15333;50.010;20.020;2023-01-31T11:49:59;98682.75;;;2.73;83.82
28008;BME280;15333;50.010;20.020;2023-01-31T11:53:03;98678.22;;;2.18;85.43
28008;BME280;15333;50.010;20.020;2023-01-31T11:56:23;98681.66;;;2.20;86.46
28008;BME280;15333;50.010;20.020;2023-01-31T11:59:28;98666.72;;;2.39;85.21
28008;BME280;15333;50.010;20.020;2023-01-31T12:02:40;98672.47;;;2.67;85.56
28008;BME280;15333;50.010;20.020;2023-01-31T12:05:43;98674.38;;;2.64;84.33
28008;BME280;15333;50.010;20.020;2023-01-31T12:08:53;98678.56;;;2.49;85.01
28008;BME280;15333;50.010;20.020;2023-01-31T12:12:01;98679.53;;;2.08;87.58
28008;BME280;15333;50.010;20.020;2023-01-31T12:15:12;98676.09;;;1.85;89.12
28008;BME280;15333;50.010;20.020;2023-01-31T12:28:36;98663.03;;;2.03;88.77
28008;BME280;15333;50.010;20.020;2023-01-31T12:38:40;98656.94;;;2.21;86.59
28008;BME280;15333;50.010;20.020;2023-01-31T12:55:11;98650.97;;;2.36;80.38
28008;BME280;15333;50.010;20.020;2023-01-31T12:58:40;98648.16;;;2.41;80.75
28008;BME280;15333;50.010;20.020;2023-01-31T13:01:48;98649.16;;;2.38;79.83
28008;BME280;15333;50.010;20.020;2023-01-31T13:08:17;98644.19;;;2.69;78.79
28008;BME280;15333;50.010;20.020;2023-01-31T13:11:25;98640.13;;;2.62;78.89
28008;BME280;15333;50.010;20.020;2023-01-31T13:14:30;98629.25;;;2.68;79.55
28008;BME280;15333;50.010;20.020;2023-01-31T13:17:36;98644.03;;;2.54;79.67
28008;BME280;15333;50.010;20.020;2023-01-31T13:20:53;98640.59;;;2.70;80.06
28008;BME280;15333;50.010;20.020;2023-01-31T13:24:03;98638.19;;;2.47;82.83
28008;BME280;15333;50.010;20.020;2023-01-31T13:27:10;98642.53;;;2.48;85.09
28008;BME280;15333;50.010;20.020;2023-01-31T13:30:20;98633.19;;;2.41;85.65
28008;BME280;15333;50.010;20.020;2023-01-31T13:36:47;98636.38;;;2.09;88.35
28008;BME280;15333;50.010;20.020;2023-01-31T13:39:57;98646.94;;;2.09;88.62
28008;BME280;15333;50.010;20.020;2023-01-31T13:43:03;98639.53;;;2.17;88.23
28008;BME280;15333;50.010;20.020;2023-01-31T13:46:09;98640.34;;;1.99;89.35
28008;BME280;15333;50.010;20.020;2023-01-31T13:49:33;98626.09;;;2.03;89.51
28008;BME280;15333;50.010;20.020;2023-01-31T13:52:40;98627.94;;;2.01;90.43
28008;BME280;15333;50.010;20.020;2023-01-31T13:55:47;98628.34;;;1.91;90.15
28008;BME280;15333;50.010;20.020;2023-01-31T13:58:49;98622.13;;;1.92;91.18
28008;BME280;15333;50.010;20.020;2023-01-31T14:01:53;98623.72;;;1.96;90.65
28008;BME280;15333;50.010;20.020;2023-01-31T14:05:06;98634.13;;;2.00;90.25
28008;BME280;15333;50.010;20.020;2023-01-31T14:08:56;98630.03;;;1.92;90.19
28008;BME280;15333;50.010;20.020;2023-01-31T14:12:00;98629.81;;;1.99;90.10
28008;BME280;15333;50.010;20.020;2023-01-31T14:15:49;98634.66;;;1.87;90.57
28008;BME280;15333;50.010;20.020;2023-01-31T14:18:51;98635.31;;;1.92;91.82
28008;BME280;15333;50.010;20.020;2023-01-31T14:22:16;98630.31;;;1.86;92.08
28008;BME280;15333;50.010;20.020;2023-01-31T14:25:40;98617.28;;;1.83;92.61
28008;BME280;15333;50.010;20.020;2023-01-31T14:28:42;98619.91;;;1.83;92.66
28008;BME280;15333;50.010;20.020;2023-01-31T14:31:44;98625.19;;;1.63;93.84
28008;BME280;15333;50.010;20.020;2023-01-31T14:34:47;98626.97;;;1.63;93.92
28008;BME280;15333;50.010;20.020;2023-01-31T14:38:02;98615.66;;;1.59;94.19
28008;BME280;15333;50.010;20.020;2023-01-31T14:57:48;98602.34;;;1.82;92.35
28008;BME280;15333;50.010;20.020;2023-01-31T15:00:54;98605.91;;;1.81;92.20
28008;BME280;15333;50.010;20.020;2023-01-31T15:03:57;98603.66;;;1.72;92.57
28008;BME280;15333;50.010;20.020;2023-01-31T15:07:01;98607.22;;;1.71;92.76
28008;BME280;15333;50.010;20.020;2023-01-31T15:10:02;98602.03;;;1.70;93.89
28008;BME280;15333;50.010;20.020;2023-01-31T15:16:41;98605.38;;;1.53;96.83
28008;BME280;15333;50.010;20.020;2023-01-31T15:19:51;98594.94;;;1.50;98.18
28008;BME280;15333;50.010;20.020;2023-01-31T15:22:56;98593.25;;;1.49;99.89
28008;BME280;15333;50.010;20.020;2023-01-31T15:26:02;98593.75;;;1.37;100.00
28008;BME280;15333;50.010;20.020;2023-01-31T15:29:04;98592.28;;;1.30;100.00
28008;BME280;15333;50.010;20.020;2023-01-31T15:32:18;98594.16;;;1.28;100.00
28008;BME280;15333;50.010;20.020;2023-01-31T15:35:30;98587.53;;;1.17;100.00
28008;BME280;15333;50.010;20.020;2023-01-31T15:38:39;98591.09;;;1.16;100.00
28008;BME280;15333;50.010;20.020;2023-01-31T15:41:43;98582.38;;;1.14;100.00
28008;BME280;15333;50.010;20.020;2023-01-31T15:44:45;98583.69;;;1.04;100.00
28008;BME280;15333;50.010;20.020;2023-01-31T15:47:59;98577.50;;;1.05;100.00
28008;BME280;15333;50.010;20.020;2023-01-31T15:51:01;98579.09;;;1.09;100.00
28008;BME280;15333;50.010;20.020;2023-01-31T15:54:04;98579.75;;;1.14;100.00
28008;BME280;15333;50.010;20.020;2023-01-31T15:57:12;98579.34;;;1.03;100.00
28008;BME280;15333;50.010;20.020;2023-01-31T16:03:30;98563.66;;;1.00;100.00
28008;BME280;15333;50.010;20.020;2023-01-31T16:06:34;98560.34;;;0.95;100.00
28008;BME280;15333;50.010;20.020;2023-01-31T16:09:36;98555.84;;;0.99;100.00
28008;BME280;15333;50.010;20.020;2023-01-31T16:12:41;98560.97;;;1.02;100.00
28008;BME280;15333;50.010;20.020;2023-01-31T16:15:44;98546.88;;;1.03;100.00
28008;BME280;15333;50.010;20.020;2023-01-31T16:18:53;98548.69;;;1.01;100.00
28008;BME280;15333;50.010;20.020;2023-01-31T16:21:57;98550.31;;;1.05;100.00
28008;BME280;15333;50.010;20.020;2023-01-31T16:25:01;98534.59;;;1.02;100.00
28008;BME280;15333;50.010;20.020;2023-01-31T16:28:05;98539.28;;;0.95;100.00
28008;BME280;15333;50.010;20.020;2023-01-31T16:31:09;98543.88;;;0.90;100.00
28008;BME280;15333;50.010;20.020;2023-01-31T16:34:37;98546.03;;;0.81;100.00
28008;BME280;15333;50.010;20.020;2023-01-31T16:37:40;98551.50;;;0.76;100.00
28008;BME280;15333;50.010;20.020;2023-01-31T16:40:48;98549.56;;;0.79;100.00
28008;BME280;15333;50.010;20.020;2023-01-31T16:43:50;98548.97;;;0.73;100.00
28008;BME280;15333;50.010;20.020;2023-01-31T16:46:52;98544.75;;;0.69;100.00
28008;BME280;15333;50.010;20.020;2023-01-31T16:53:30;98548.50;;;0.63;100.00
28008;BME280;15333;50.010;20.020;2023-01-31T16:56:32;98538.94;;;0.61;100.00
28008;BME280;15333;50.010;20.020;2023-01-31T17:02:39;98537.34;;;0.57;100.00
28008;BME280;15333;50.010;20.020;2023-01-31T17:05:42;98539.03;;;0.58;100.00
28008;BME280;15333;50.010;20.020;2023-01-31T17:08:44;98531.28;;;0.55;100.00
28008;BME280;15333;50.010;20.020;2023-01-31T17:11:46;98523.44;;;0.53;100.00
28008;BME280;15333;50.010;20.020;2023-01-31T17:14:46;98528.09;;;0.47;100.00
28008;BME280;15333;50.010;20.020;2023-01-31T17:17:48;98525.44;;;0.47;100.00
28008;BME280;15333;50.010;20.020;2023-01-31T17:20:49;98520.19;;;0.47;100.00
28008;BME280;15333;50.010;20.020;2023-01-31T17:23:50;98521.75;;;0.51;100.00
28008;BME280;15333;50.010;20.020;2023-01-31T17:26:51;98513.09;;;0.49;100.00
28008;BME280;15333;50.010;20.020;2023-01-31T17:29:52;98512.94;;;0.52;100.00
28008;BME280;15333;50.010;20.020;2023-01-31T17:32:53;98509.41;;;0.53;100.00
28008;BME280;15333;50.010;20.020;2023-01-31T17:35:55;98502.16;;;0.58;100.00
28008;BME280;15333;50.010;20.020;2023-01-31T17:38:56;98503.63;;;0.65;100.00
28008;BME280;15333;50.010;20.020;2023-01-31T17:41:57;98505.25;;;0.69;100.00
28008;BME280;15333;50.010;20.020;2023-01-31T17:44:58;98506.97;;;0.70;100.00
28008;BME280;15333;50.010;20.020;2023-01-31T17:47:59;98499.97;;;0.69;100.00
28008;BME280;15333;50.010;20.020;2023-01-31T17:50:59;98499.97;;;0.69;100.00
28008;BME280;15333;50.010;20.020;2023-01-31T17:54:00;98506.81;;;0.73;100.00
28008;BME280;15333;50.010;20.020;2023-01-31T17:57:01;98503.41;;;0.71;100.00
28008;BME280;15333;50.010;20.020;2023-01-31T18:00:04;98503.16;;;0.77;100.00
28008;BME280;15333;50.010;20.020;2023-01-31T18:03:10;98511.72;;;0.82;100.00
28008;BME280;15333;50.010;20.020;2023-01-31T18:06:15;98512.38;;;0.87;100.00
28008;BME280;15333;50.010;20.020;2023-01-31T18:09:16;98505.28;;;0.89;100.00
28008;BME280;15333;50.010;20.020;2023-01-31T18:12:18;98498.84;;;0.96;100.00
28008;BME280;15333;50.010;20.020;2023-01-31T18:15:19;98488.91;;;1.03;100.00
28008;BME280;15333;50.010;20.020;2023-01-31T18:18:20;98476.03;;;0.95;100.00